sensor_id;sensor_type;location;lat;lon;timestamp;P1;durP1;ratioP1;P2;durP2;ratioP2
7383;SDS011;3733;47.994;8.820;2023-08-06T00:02:23;3.20;;;2.90;;
7383;SDS011;3733;47.994;8.820;2023-08-06T00:04:48;3.57;;;3.00;;
7383;SDS011;3733;47.994;8.820;2023-08-06T00:07:14;4.87;;;2.90;;
7383;SDS011;3733;47.994;8.820;2023-08-06T00:09:40;3.10;;;2.50;;
7383;SDS011;3733;47.994;8.820;2023-08-06T00:12:05;3.83;;;3.30;;
7383;SDS011;3733;47.994;8.820;2023-08-06T00:14:31;3.07;;;2.77;;
7383;SDS011;3733;47.994;8.820;2023-08-06T00:16:57;2.70;;;2.50;;
7383;SDS011;3733;47.994;8.820;2023-08-06T00:19:23;4.90;;;2.83;;
7383;SDS011;3733;47.994;8.820;2023-08-06T00:21:48;3.10;;;2.87;;
7383;SDS011;3733;47.994;8.820;2023-08-06T00:24:14;6.57;;;2.40;;
7383;SDS011;3733;47.994;8.820;2023-08-06T00:26:39;4.20;;;2.90;;
7383;SDS011;3733;47.994;8.820;2023-08-06T00:29:05;3.60;;;2.43;;
7383;SDS011;3733;47.994;8.820;2023-08-06T00:31:31;2.60;;;2.40;;
7383;SDS011;3733;47.994;8.820;2023-08-06T00:33:56;6.67;;;2.47;;
7383;SDS011;3733;47.994;8.820;2023-08-06T00:36:22;2.60;;;2.40;;
7383;SDS011;3733;47.994;8.820;2023-08-06T00:38:47;2.70;;;2.47;;
7383;SDS011;3733;47.994;8.820;2023-08-06T00:41:13;5.80;;;3.00;;
7383;SDS011;3733;47.994;8.820;2023-08-06T00:43:39;3.00;;;2.70;;
7383;SDS011;3733;47.994;8.820;2023-08-06T00:46:04;3.00;;;2.20;;
7383;SDS011;3733;47.994;8.820;2023-08-06T00:48:30;5.50;;;2.50;;
7383;SDS011;3733;47.994;8.820;2023-08-06T00:50:56;2.30;;;1.90;;
7383;SDS011;3733;47.994;8.820;2023-08-06T00:53:22;3.63;;;2.57;;
7383;SDS011;3733;47.994;8.820;2023-08-06T00:55:48;6.93;;;2.40;;
7383;SDS011;3733;47.994;8.820;2023-08-06T00:58:15;2.63;;;2.40;;
7383;SDS011;3733;47.994;8.820;2023-08-06T01:00:41;2.40;;;2.10;;
7383;SDS011;3733;47.994;8.820;2023-08-06T01:03:07;3.50;;;2.30;;
7383;SDS011;3733;47.994;8.820;2023-08-06T01:05:33;2.17;;;2.03;;
7383;SDS011;3733;47.994;8.820;2023-08-06T01:13:48;4.23;;;2.73;;
7383;SDS011;3733;47.994;8.820;2023-08-06T01:16:20;8.70;;;2.93;;
7383;SDS011;3733;47.994;8.820;2023-08-06T01:18:49;2.47;;;2.07;;
7383;SDS011;3733;47.994;8.820;2023-08-06T01:21:15;2.57;;;2.20;;
7383;SDS011;3733;47.994;8.820;2023-08-06T01:23:42;2.50;;;2.30;;
7383;SDS011;3733;47.994;8.820;2023-08-06T01:31:24;5.93;;;2.40;;
7383;SDS011;3733;47.994;8.820;2023-08-06T01:33:52;3.50;;;3.03;;
7383;SDS011;3733;47.994;8.820;2023-08-06T01:36:20;5.33;;;2.60;;
7383;SDS011;3733;47.994;8.820;2023-08-06T01:38:47;2.40;;;2.20;;
7383;SDS011;3733;47.994;8.820;2023-08-06T01:41:12;2.67;;;2.10;;
7383;SDS011;3733;47.994;8.820;2023-08-06T01:43:38;3.23;;;2.53;;
7383;SDS011;3733;47.994;8.820;2023-08-06T01:46:03;4.97;;;2.27;;
7383;SDS011;3733;47.994;8.820;2023-08-06T01:48:29;3.73;;;2.53;;
7383;SDS011;3733;47.994;8.820;2023-08-06T01:50:55;2.60;;;2.40;;
7383;SDS011;3733;47.994;8.820;2023-08-06T01:53:20;2.53;;;2.33;;
7383;SDS011;3733;47.994;8.820;2023-08-06T01:55:49;2.07;;;1.80;;
7383;SDS011;3733;47.994;8.820;2023-08-06T01:58:14;2.53;;;1.90;;
7383;SDS011;3733;47.994;8.820;2023-08-06T02:00:40;3.30;;;2.27;;
7383;SDS011;3733;47.994;8.820;2023-08-06T02:03:06;2.63;;;2.43;;
7383;SDS011;3733;47.994;8.820;2023-08-06T02:05:32;3.33;;;2.27;;
7383;SDS011;3733;47.994;8.820;2023-08-06T02:07:57;3.10;;;2.40;;
7383;SDS011;3733;47.994;8.820;2023-08-06T02:10:23;3.87;;;2.40;;
7383;SDS011;3733;47.994;8.820;2023-08-06T02:12:49;3.20;;;2.23;;
7383;SDS011;3733;47.994;8.820;2023-08-06T02:15:14;3.63;;;2.53;;
7383;SDS011;3733;47.994;8.820;2023-08-06T02:17:40;3.77;;;2.43;;
7383;SDS011;3733;47.994;8.820;2023-08-06T02:20:05;8.67;;;2.60;;
7383;SDS011;3733;47.994;8.820;2023-08-06T02:22:31;3.10;;;2.50;;
7383;SDS011;3733;47.994;8.820;2023-08-06T02:24:58;3.60;;;1.90;;
7383;SDS011;3733;47.994;8.820;2023-08-06T02:27:24;2.47;;;2.00;;
7383;SDS011;3733;47.994;8.820;2023-08-06T02:29:49;3.97;;;2.30;;
7383;SDS011;3733;47.994;8.820;2023-08-06T02:32:15;2.47;;;2.27;;
7383;SDS011;3733;47.994;8.820;2023-08-06T02:34:41;3.13;;;2.20;;
7383;SDS011;3733;47.994;8.820;2023-08-06T02:37:06;3.27;;;2.47;;
7383;SDS011;3733;47.994;8.820;2023-08-06T02:39:32;2.40;;;2.20;;
7383;SDS011;3733;47.994;8.820;2023-08-06T02:41:58;2.50;;;2.30;;
7383;SDS011;3733;47.994;8.820;2023-08-06T02:44:27;4.03;;;2.47;;
7383;SDS011;3733;47.994;8.820;2023-08-06T02:46:53;3.70;;;2.70;;
7383;SDS011;3733;47.994;8.820;2023-08-06T02:49:18;3.30;;;2.57;;
7383;SDS011;3733;47.994;8.820;2023-08-06T02:51:47;6.67;;;2.50;;
7383;SDS011;3733;47.994;8.820;2023-08-06T02:54:12;3.30;;;2.60;;
7383;SDS011;3733;47.994;8.820;2023-08-06T02:56:38;4.30;;;2.70;;
7383;SDS011;3733;47.994;8.820;2023-08-06T02:59:07;4.67;;;2.03;;
7383;SDS011;3733;47.994;8.820;2023-08-06T03:01:33;6.63;;;2.30;;
7383;SDS011;3733;47.994;8.820;2023-08-06T03:03:58;8.60;;;2.80;;
7383;SDS011;3733;47.994;8.820;2023-08-06T03:06:24;3.97;;;2.97;;
7383;SDS011;3733;47.994;8.820;2023-08-06T03:08:49;4.03;;;2.30;;
7383;SDS011;3733;47.994;8.820;2023-08-06T03:11:15;6.20;;;2.47;;
7383;SDS011;3733;47.994;8.820;2023-08-06T03:13:41;4.97;;;2.60;;
7383;SDS011;3733;47.994;8.820;2023-08-06T03:16:06;3.50;;;2.70;;
7383;SDS011;3733;47.994;8.820;2023-08-06T03:18:32;2.80;;;2.27;;
7383;SDS011;3733;47.994;8.820;2023-08-06T03:20:57;5.07;;;3.17;;
7383;SDS011;3733;47.994;8.820;2023-08-06T03:23:23;4.73;;;2.70;;
7383;SDS011;3733;47.994;8.820;2023-08-06T03:25:48;5.00;;;2.63;;
7383;SDS011;3733;47.994;8.820;2023-08-06T03:28:14;5.30;;;2.80;;
7383;SDS011;3733;47.994;8.820;2023-08-06T03:30:40;5.20;;;3.00;;
7383;SDS011;3733;47.994;8.820;2023-08-06T03:33:05;4.37;;;2.60;;
7383;SDS011;3733;47.994;8.820;2023-08-06T03:35:31;2.77;;;2.40;;
7383;SDS011;3733;47.994;8.820;2023-08-06T03:37:56;6.43;;;2.83;;
7383;SDS011;3733;47.994;8.820;2023-08-06T03:40:22;3.40;;;2.77;;
7383;SDS011;3733;47.994;8.820;2023-08-06T03:42:48;3.37;;;2.50;;
7383;SDS011;3733;47.994;8.820;2023-08-06T03:45:13;4.37;;;2.30;;
7383;SDS011;3733;47.994;8.820;2023-08-06T03:47:39;3.13;;;2.70;;
7383;SDS011;3733;47.994;8.820;2023-08-06T03:50:05;3.57;;;2.20;;
7383;SDS011;3733;47.994;8.820;2023-08-06T03:52:31;6.80;;;2.80;;
7383;SDS011;3733;47.994;8.820;2023-08-06T03:54:57;7.07;;;3.40;;
7383;SDS011;3733;47.994;8.820;2023-08-06T03:57:22;3.60;;;2.70;;
7383;SDS011;3733;47.994;8.820;2023-08-06T03:59:48;7.80;;;2.90;;
7383;SDS011;3733;47.994;8.820;2023-08-06T04:02:13;4.77;;;3.17;;
7383;SDS011;3733;47.994;8.820;2023-08-06T04:04:39;6.13;;;3.30;;
7383;SDS011;3733;47.994;8.820;2023-08-06T04:07:04;3.57;;;2.60;;
7383;SDS011;3733;47.994;8.820;2023-08-06T04:09:30;9.67;;;2.60;;
7383;SDS011;3733;47.994;8.820;2023-08-06T04:11:56;7.73;;;2.47;;
7383;SDS011;3733;47.994;8.820;2023-08-06T04:14:23;3.10;;;2.20;;
7383;SDS011;3733;47.994;8.820;2023-08-06T04:16:49;2.80;;;1.93;;
7383;SDS011;3733;47.994;8.820;2023-08-06T04:19:14;4.70;;;2.73;;
7383;SDS011;3733;47.994;8.820;2023-08-06T04:21:40;4.33;;;2.30;;
7383;SDS011;3733;47.994;8.820;2023-08-06T04:24:06;2.53;;;2.00;;
7383;SDS011;3733;47.994;8.820;2023-08-06T04:26:31;3.27;;;1.83;;
7383;SDS011;3733;47.994;8.820;2023-08-06T04:28:57;4.07;;;2.30;;
7383;SDS011;3733;47.994;8.820;2023-08-06T04:31:22;2.10;;;1.70;;
7383;SDS011;3733;47.994;8.820;2023-08-06T04:33:48;4.57;;;2.20;;
7383;SDS011;3733;47.994;8.820;2023-08-06T04:36:14;3.87;;;1.80;;
7383;SDS011;3733;47.994;8.820;2023-08-06T04:38:39;3.17;;;2.13;;
7383;SDS011;3733;47.994;8.820;2023-08-06T04:41:09;3.57;;;2.17;;
7383;SDS011;3733;47.994;8.820;2023-08-06T04:43:35;2.30;;;2.00;;
7383;SDS011;3733;47.994;8.820;2023-08-06T04:46:01;3.87;;;2.00;;
7383;SDS011;3733;47.994;8.820;2023-08-06T04:48:26;3.00;;;1.70;;
7383;SDS011;3733;47.994;8.820;2023-08-06T04:50:52;2.47;;;1.57;;
7383;SDS011;3733;47.994;8.820;2023-08-06T04:53:18;5.50;;;1.97;;
7383;SDS011;3733;47.994;8.820;2023-08-06T04:55:43;2.30;;;2.10;;
7383;SDS011;3733;47.994;8.820;2023-08-06T04:58:09;1.73;;;1.63;;
7383;SDS011;3733;47.994;8.820;2023-08-06T05:00:35;3.60;;;1.70;;
7383;SDS011;3733;47.994;8.820;2023-08-06T05:03:01;2.30;;;1.30;;
7383;SDS011;3733;47.994;8.820;2023-08-06T05:05:28;2.90;;;1.60;;
7383;SDS011;3733;47.994;8.820;2023-08-06T05:07:54;1.10;;;1.00;;
7383;SDS011;3733;47.994;8.820;2023-08-06T05:10:26;2.10;;;1.30;;
7383;SDS011;3733;47.994;8.820;2023-08-06T05:12:52;1.33;;;1.10;;
7383;SDS011;3733;47.994;8.820;2023-08-06T05:15:18;1.50;;;1.40;;
7383;SDS011;3733;47.994;8.820;2023-08-06T05:17:44;3.20;;;1.40;;
7383;SDS011;3733;47.994;8.820;2023-08-06T05:20:10;2.07;;;1.37;;
7383;SDS011;3733;47.994;8.820;2023-08-06T05:22:36;1.87;;;1.20;;
7383;SDS011;3733;47.994;8.820;2023-08-06T05:25:02;5.90;;;1.40;;
7383;SDS011;3733;47.994;8.820;2023-08-06T05:27:27;3.00;;;1.60;;
7383;SDS011;3733;47.994;8.820;2023-08-06T05:29:54;2.90;;;1.50;;
7383;SDS011;3733;47.994;8.820;2023-08-06T05:32:21;2.10;;;1.03;;
7383;SDS011;3733;47.994;8.820;2023-08-06T05:34:47;21.00;;;1.93;;
7383;SDS011;3733;47.994;8.820;2023-08-06T05:37:12;2.10;;;0.90;;
7383;SDS011;3733;47.994;8.820;2023-08-06T05:39:38;2.03;;;1.30;;
7383;SDS011;3733;47.994;8.820;2023-08-06T05:42:04;3.33;;;1.27;;
7383;SDS011;3733;47.994;8.820;2023-08-06T05:44:30;1.77;;;1.10;;
7383;SDS011;3733;47.994;8.820;2023-08-06T05:46:56;8.90;;;1.60;;
7383;SDS011;3733;47.994;8.820;2023-08-06T05:49:21;2.27;;;1.30;;
7383;SDS011;3733;47.994;8.820;2023-08-06T05:51:47;1.30;;;1.10;;
7383;SDS011;3733;47.994;8.820;2023-08-06T05:54:13;1.20;;;1.00;;
7383;SDS011;3733;47.994;8.820;2023-08-06T05:56:38;3.33;;;1.00;;
7383;SDS011;3733;47.994;8.820;2023-08-06T05:59:04;2.60;;;0.90;;
7383;SDS011;3733;47.994;8.820;2023-08-06T06:01:30;1.03;;;0.93;;
7383;SDS011;3733;47.994;8.820;2023-08-06T06:03:56;3.20;;;0.90;;
7383;SDS011;3733;47.994;8.820;2023-08-06T06:06:21;4.00;;;1.13;;
7383;SDS011;3733;47.994;8.820;2023-08-06T06:08:47;1.30;;;1.20;;
7383;SDS011;3733;47.994;8.820;2023-08-06T06:11:12;1.33;;;1.17;;
7383;SDS011;3733;47.994;8.820;2023-08-06T06:13:38;1.33;;;1.00;;
7383;SDS011;3733;47.994;8.820;2023-08-06T06:16:03;1.93;;;1.20;;
7383;SDS011;3733;47.994;8.820;2023-08-06T06:18:30;1.20;;;0.87;;
7383;SDS011;3733;47.994;8.820;2023-08-06T06:20:56;2.67;;;1.27;;
7383;SDS011;3733;47.994;8.820;2023-08-06T06:23:21;1.93;;;1.30;;
7383;SDS011;3733;47.994;8.820;2023-08-06T06:25:47;1.30;;;1.00;;
7383;SDS011;3733;47.994;8.820;2023-08-06T06:28:14;2.80;;;1.37;;
7383;SDS011;3733;47.994;8.820;2023-08-06T06:30:40;1.50;;;1.10;;
7383;SDS011;3733;47.994;8.820;2023-08-06T06:33:07;2.40;;;1.00;;
7383;SDS011;3733;47.994;8.820;2023-08-06T06:35:33;0.80;;;0.80;;
7383;SDS011;3733;47.994;8.820;2023-08-06T06:37:58;1.33;;;1.20;;
7383;SDS011;3733;47.994;8.820;2023-08-06T06:40:25;0.80;;;0.77;;
7383;SDS011;3733;47.994;8.820;2023-08-06T06:42:50;1.10;;;0.93;;
7383;SDS011;3733;47.994;8.820;2023-08-06T06:45:16;1.20;;;1.10;;
7383;SDS011;3733;47.994;8.820;2023-08-06T06:47:41;1.10;;;0.90;;
7383;SDS011;3733;47.994;8.820;2023-08-06T06:50:07;0.90;;;0.80;;
7383;SDS011;3733;47.994;8.820;2023-08-06T06:52:33;1.60;;;1.10;;
7383;SDS011;3733;47.994;8.820;2023-08-06T06:54:59;2.63;;;1.10;;
7383;SDS011;3733;47.994;8.820;2023-08-06T06:57:24;1.03;;;0.80;;
7383;SDS011;3733;47.994;8.820;2023-08-06T06:59:50;1.30;;;0.80;;
7383;SDS011;3733;47.994;8.820;2023-08-06T07:02:15;2.23;;;1.00;;
7383;SDS011;3733;47.994;8.820;2023-08-06T07:04:41;1.40;;;0.90;;
7383;SDS011;3733;47.994;8.820;2023-08-06T07:07:07;1.33;;;0.80;;
7383;SDS011;3733;47.994;8.820;2023-08-06T07:09:32;0.80;;;0.80;;
7383;SDS011;3733;47.994;8.820;2023-08-06T07:11:58;0.70;;;0.70;;
7383;SDS011;3733;47.994;8.820;2023-08-06T07:14:28;1.77;;;0.80;;
7383;SDS011;3733;47.994;8.820;2023-08-06T07:16:54;2.17;;;1.23;;
7383;SDS011;3733;47.994;8.820;2023-08-06T07:19:19;0.93;;;0.93;;
7383;SDS011;3733;47.994;8.820;2023-08-06T07:21:45;1.03;;;0.77;;
7383;SDS011;3733;47.994;8.820;2023-08-06T07:24:11;2.30;;;0.70;;
7383;SDS011;3733;47.994;8.820;2023-08-06T07:26:37;0.93;;;0.70;;
7383;SDS011;3733;47.994;8.820;2023-08-06T07:29:03;2.57;;;1.20;;
7383;SDS011;3733;47.994;8.820;2023-08-06T07:31:28;1.10;;;0.70;;
7383;SDS011;3733;47.994;8.820;2023-08-06T07:33:54;1.03;;;0.70;;
7383;SDS011;3733;47.994;8.820;2023-08-06T07:36:20;1.00;;;0.80;;
7383;SDS011;3733;47.994;8.820;2023-08-06T07:38:45;0.70;;;0.70;;
7383;SDS011;3733;47.994;8.820;2023-08-06T07:41:11;0.70;;;0.70;;
7383;SDS011;3733;47.994;8.820;2023-08-06T07:43:36;1.30;;;0.80;;
7383;SDS011;3733;47.994;8.820;2023-08-06T07:46:02;0.60;;;0.60;;
7383;SDS011;3733;47.994;8.820;2023-08-06T07:48:28;2.70;;;1.00;;
7383;SDS011;3733;47.994;8.820;2023-08-06T07:50:54;1.27;;;0.87;;
7383;SDS011;3733;47.994;8.820;2023-08-06T07:53:21;0.60;;;0.60;;
7383;SDS011;3733;47.994;8.820;2023-08-06T07:55:49;0.60;;;0.60;;
7383;SDS011;3733;47.994;8.820;2023-08-06T07:58:15;1.83;;;0.80;;
7383;SDS011;3733;47.994;8.820;2023-08-06T08:00:41;1.33;;;0.60;;
7383;SDS011;3733;47.994;8.820;2023-08-06T08:03:10;1.00;;;0.93;;
7383;SDS011;3733;47.994;8.820;2023-08-06T08:05:39;1.73;;;1.10;;
7383;SDS011;3733;47.994;8.820;2023-08-06T08:08:06;1.07;;;0.80;;
7383;SDS011;3733;47.994;8.820;2023-08-06T08:10:32;2.23;;;0.80;;
7383;SDS011;3733;47.994;8.820;2023-08-06T08:12:59;0.80;;;0.70;;
7383;SDS011;3733;47.994;8.820;2023-08-06T08:15:29;1.17;;;0.80;;
7383;SDS011;3733;47.994;8.820;2023-08-06T08:17:55;1.00;;;0.90;;
7383;SDS011;3733;47.994;8.820;2023-08-06T08:20:21;0.93;;;0.73;;
7383;SDS011;3733;47.994;8.820;2023-08-06T08:22:47;0.70;;;0.70;;
7383;SDS011;3733;47.994;8.820;2023-08-06T08:25:13;0.73;;;0.73;;
7383;SDS011;3733;47.994;8.820;2023-08-06T08:27:39;1.53;;;0.90;;
7383;SDS011;3733;47.994;8.820;2023-08-06T08:30:05;1.13;;;0.77;;
7383;SDS011;3733;47.994;8.820;2023-08-06T08:32:31;0.70;;;0.70;;
7383;SDS011;3733;47.994;8.820;2023-08-06T08:34:56;2.00;;;1.03;;
7383;SDS011;3733;47.994;8.820;2023-08-06T08:37:23;1.00;;;0.70;;
7383;SDS011;3733;47.994;8.820;2023-08-06T08:39:48;1.73;;;0.70;;
7383;SDS011;3733;47.994;8.820;2023-08-06T08:42:15;3.40;;;0.73;;
7383;SDS011;3733;47.994;8.820;2023-08-06T08:44:41;0.77;;;0.77;;
7383;SDS011;3733;47.994;8.820;2023-08-06T08:47:07;0.80;;;0.80;;
7383;SDS011;3733;47.994;8.820;2023-08-06T08:49:37;1.00;;;0.90;;
7383;SDS011;3733;47.994;8.820;2023-08-06T08:52:03;1.57;;;1.10;;
7383;SDS011;3733;47.994;8.820;2023-08-06T08:54:33;3.23;;;2.27;;
7383;SDS011;3733;47.994;8.820;2023-08-06T08:56:59;1.57;;;0.77;;
7383;SDS011;3733;47.994;8.820;2023-08-06T08:59:25;0.90;;;0.80;;
7383;SDS011;3733;47.994;8.820;2023-08-06T09:01:51;0.80;;;0.70;;
7383;SDS011;3733;47.994;8.820;2023-08-06T09:04:18;1.60;;;0.70;;
7383;SDS011;3733;47.994;8.820;2023-08-06T09:06:49;1.93;;;0.80;;
7383;SDS011;3733;47.994;8.820;2023-08-06T09:09:17;4.33;;;1.00;;
7383;SDS011;3733;47.994;8.820;2023-08-06T09:11:50;0.70;;;0.70;;
7383;SDS011;3733;47.994;8.820;2023-08-06T09:14:16;1.27;;;0.83;;
7383;SDS011;3733;47.994;8.820;2023-08-06T09:16:42;0.80;;;0.80;;
7383;SDS011;3733;47.994;8.820;2023-08-06T09:19:11;1.37;;;0.80;;
7383;SDS011;3733;47.994;8.820;2023-08-06T09:21:38;0.80;;;0.80;;
7383;SDS011;3733;47.994;8.820;2023-08-06T09:24:10;1.00;;;0.80;;
7383;SDS011;3733;47.994;8.820;2023-08-06T09:26:37;1.50;;;1.40;;
7383;SDS011;3733;47.994;8.820;2023-08-06T09:29:07;0.87;;;0.80;;
7383;SDS011;3733;47.994;8.820;2023-08-06T09:36:41;1.40;;;1.20;;
7383;SDS011;3733;47.994;8.820;2023-08-06T09:39:18;2.00;;;0.90;;
7383;SDS011;3733;47.994;8.820;2023-08-06T09:41:44;1.40;;;1.30;;
7383;SDS011;3733;47.994;8.820;2023-08-06T09:44:20;0.80;;;0.80;;
7383;SDS011;3733;47.994;8.820;2023-08-06T09:46:48;1.07;;;0.80;;
7383;SDS011;3733;47.994;8.820;2023-08-06T09:49:16;1.03;;;0.80;;
7383;SDS011;3733;47.994;8.820;2023-08-06T09:51:42;1.67;;;1.00;;
7383;SDS011;3733;47.994;8.820;2023-08-06T09:54:09;1.00;;;0.90;;
7383;SDS011;3733;47.994;8.820;2023-08-06T09:56:37;1.13;;;0.93;;
7383;SDS011;3733;47.994;8.820;2023-08-06T09:59:06;2.83;;;0.93;;
7383;SDS011;3733;47.994;8.820;2023-08-06T10:01:33;0.70;;;0.70;;
7383;SDS011;3733;47.994;8.820;2023-08-06T10:04:00;1.23;;;1.13;;
7383;SDS011;3733;47.994;8.820;2023-08-06T10:06:32;0.60;;;0.60;;
7383;SDS011;3733;47.994;8.820;2023-08-06T10:09:03;0.70;;;0.70;;
7383;SDS011;3733;47.994;8.820;2023-08-06T10:11:29;0.70;;;0.70;;
7383;SDS011;3733;47.994;8.820;2023-08-06T10:13:58;0.80;;;0.80;;
7383;SDS011;3733;47.994;8.820;2023-08-06T10:16:29;1.27;;;0.73;;
7383;SDS011;3733;47.994;8.820;2023-08-06T10:18:56;0.70;;;0.70;;
7383;SDS011;3733;47.994;8.820;2023-08-06T10:21:23;0.80;;;0.80;;
7383;SDS011;3733;47.994;8.820;2023-08-06T10:23:55;0.93;;;0.63;;
7383;SDS011;3733;47.994;8.820;2023-08-06T10:26:24;0.60;;;0.60;;
7383;SDS011;3733;47.994;8.820;2023-08-06T10:28:54;0.60;;;0.60;;
7383;SDS011;3733;47.994;8.820;2023-08-06T10:31:20;0.90;;;0.70;;
7383;SDS011;3733;47.994;8.820;2023-08-06T10:34:04;1.00;;;0.83;;
7383;SDS011;3733;47.994;8.820;2023-08-06T10:36:29;0.97;;;0.70;;
7383;SDS011;3733;47.994;8.820;2023-08-06T10:38:55;0.80;;;0.80;;
7383;SDS011;3733;47.994;8.820;2023-08-06T10:41:27;0.70;;;0.70;;
7383;SDS011;3733;47.994;8.820;2023-08-06T10:44:06;0.70;;;0.70;;
7383;SDS011;3733;47.994;8.820;2023-08-06T10:46:35;0.90;;;0.90;;
7383;SDS011;3733;47.994;8.820;2023-08-06T10:49:02;0.70;;;0.70;;
7383;SDS011;3733;47.994;8.820;2023-08-06T10:51:28;0.90;;;0.70;;
7383;SDS011;3733;47.994;8.820;2023-08-06T10:53:54;0.80;;;0.80;;
7383;SDS011;3733;47.994;8.820;2023-08-06T10:56:21;1.40;;;0.80;;
7383;SDS011;3733;47.994;8.820;2023-08-06T10:58:48;0.70;;;0.70;;
7383;SDS011;3733;47.994;8.820;2023-08-06T11:01:16;1.20;;;1.10;;
7383;SDS011;3733;47.994;8.820;2023-08-06T11:03:42;1.00;;;0.90;;
7383;SDS011;3733;47.994;8.820;2023-08-06T11:06:09;1.00;;;0.80;;
7383;SDS011;3733;47.994;8.820;2023-08-06T11:08:40;0.70;;;0.70;;
7383;SDS011;3733;47.994;8.820;2023-08-06T11:11:15;0.70;;;0.70;;
7383;SDS011;3733;47.994;8.820;2023-08-06T11:13:42;1.00;;;0.90;;
7383;SDS011;3733;47.994;8.820;2023-08-06T11:16:09;2.40;;;0.90;;
7383;SDS011;3733;47.994;8.820;2023-08-06T11:18:35;0.70;;;0.70;;
7383;SDS011;3733;47.994;8.820;2023-08-06T11:21:01;0.90;;;0.80;;
7383;SDS011;3733;47.994;8.820;2023-08-06T11:23:27;0.70;;;0.70;;
7383;SDS011;3733;47.994;8.820;2023-08-06T11:25:53;0.80;;;0.80;;
7383;SDS011;3733;47.994;8.820;2023-08-06T11:28:20;1.37;;;0.80;;
7383;SDS011;3733;47.994;8.820;2023-08-06T11:30:49;0.90;;;0.90;;
7383;SDS011;3733;47.994;8.820;2023-08-06T11:33:24;1.83;;;1.60;;
7383;SDS011;3733;47.994;8.820;2023-08-06T11:35:51;1.67;;;1.43;;
7383;SDS011;3733;47.994;8.820;2023-08-06T11:38:17;0.70;;;0.70;;
7383;SDS011;3733;47.994;8.820;2023-08-06T11:40:45;2.20;;;0.90;;
7383;SDS011;3733;47.994;8.820;2023-08-06T11:43:12;0.70;;;0.70;;
7383;SDS011;3733;47.994;8.820;2023-08-06T11:45:38;0.80;;;0.80;;
7383;SDS011;3733;47.994;8.820;2023-08-06T11:48:05;3.77;;;0.70;;
7383;SDS011;3733;47.994;8.820;2023-08-06T11:50:31;0.63;;;0.63;;
7383;SDS011;3733;47.994;8.820;2023-08-06T11:53:03;0.80;;;0.80;;
7383;SDS011;3733;47.994;8.820;2023-08-06T11:55:28;1.33;;;0.80;;
7383;SDS011;3733;47.994;8.820;2023-08-06T11:57:55;0.70;;;0.70;;
7383;SDS011;3733;47.994;8.820;2023-08-06T12:00:22;0.70;;;0.70;;
7383;SDS011;3733;47.994;8.820;2023-08-06T12:02:49;1.13;;;0.70;;
7383;SDS011;3733;47.994;8.820;2023-08-06T12:05:17;2.20;;;0.77;;
7383;SDS011;3733;47.994;8.820;2023-08-06T12:10:18;0.60;;;0.60;;
7383;SDS011;3733;47.994;8.820;2023-08-06T12:12:45;1.07;;;0.70;;
7383;SDS011;3733;47.994;8.820;2023-08-06T12:15:11;0.93;;;0.87;;
7383;SDS011;3733;47.994;8.820;2023-08-06T12:17:37;0.70;;;0.70;;
7383;SDS011;3733;47.994;8.820;2023-08-06T12:20:03;1.57;;;0.70;;
7383;SDS011;3733;47.994;8.820;2023-08-06T12:22:31;0.80;;;0.70;;
7383;SDS011;3733;47.994;8.820;2023-08-06T12:25:00;3.13;;;0.80;;
7383;SDS011;3733;47.994;8.820;2023-08-06T12:27:28;0.60;;;0.60;;
7383;SDS011;3733;47.994;8.820;2023-08-06T12:29:54;0.70;;;0.70;;
7383;SDS011;3733;47.994;8.820;2023-08-06T12:32:19;0.70;;;0.70;;
7383;SDS011;3733;47.994;8.820;2023-08-06T12:34:45;0.60;;;0.60;;
7383;SDS011;3733;47.994;8.820;2023-08-06T12:37:11;1.17;;;0.70;;
7383;SDS011;3733;47.994;8.820;2023-08-06T12:39:36;0.93;;;0.80;;
7383;SDS011;3733;47.994;8.820;2023-08-06T12:42:03;0.60;;;0.60;;
7383;SDS011;3733;47.994;8.820;2023-08-06T12:44:31;0.70;;;0.70;;
7383;SDS011;3733;47.994;8.820;2023-08-06T12:46:57;0.60;;;0.60;;
7383;SDS011;3733;47.994;8.820;2023-08-06T12:49:23;0.60;;;0.60;;
7383;SDS011;3733;47.994;8.820;2023-08-06T12:51:50;1.77;;;0.73;;
7383;SDS011;3733;47.994;8.820;2023-08-06T12:54:19;0.70;;;0.70;;
7383;SDS011;3733;47.994;8.820;2023-08-06T12:56:45;1.37;;;0.70;;
7383;SDS011;3733;47.994;8.820;2023-08-06T12:59:13;0.60;;;0.60;;
7383;SDS011;3733;47.994;8.820;2023-08-06T13:01:40;0.67;;;0.67;;
7383;SDS011;3733;47.994;8.820;2023-08-06T13:04:06;0.87;;;0.87;;
7383;SDS011;3733;47.994;8.820;2023-08-06T13:06:32;0.93;;;0.70;;
7383;SDS011;3733;47.994;8.820;2023-08-06T13:09:04;0.60;;;0.60;;
7383;SDS011;3733;47.994;8.820;2023-08-06T13:11:32;0.70;;;0.70;;
7383;SDS011;3733;47.994;8.820;2023-08-06T13:14:08;1.43;;;0.70;;
7383;SDS011;3733;47.994;8.820;2023-08-06T13:16:35;0.73;;;0.73;;
7383;SDS011;3733;47.994;8.820;2023-08-06T13:19:02;0.80;;;0.80;;
7383;SDS011;3733;47.994;8.820;2023-08-06T13:21:32;7.40;;;0.70;;
7383;SDS011;3733;47.994;8.820;2023-08-06T13:23:58;0.63;;;0.63;;
7383;SDS011;3733;47.994;8.820;2023-08-06T13:26:24;1.03;;;0.70;;
7383;SDS011;3733;47.994;8.820;2023-08-06T13:28:50;1.57;;;1.00;;
7383;SDS011;3733;47.994;8.820;2023-08-06T13:31:15;6.40;;;0.90;;
7383;SDS011;3733;47.994;8.820;2023-08-06T13:33:41;1.20;;;0.80;;
7383;SDS011;3733;47.994;8.820;2023-08-06T13:36:07;0.80;;;0.73;;
7383;SDS011;3733;47.994;8.820;2023-08-06T13:38:32;0.70;;;0.70;;
7383;SDS011;3733;47.994;8.820;2023-08-06T13:40:58;0.70;;;0.70;;
7383;SDS011;3733;47.994;8.820;2023-08-06T13:43:24;0.63;;;0.63;;
7383;SDS011;3733;47.994;8.820;2023-08-06T13:45:49;0.67;;;0.67;;
7383;SDS011;3733;47.994;8.820;2023-08-06T13:48:15;0.60;;;0.60;;
7383;SDS011;3733;47.994;8.820;2023-08-06T13:50:40;0.60;;;0.60;;
7383;SDS011;3733;47.994;8.820;2023-08-06T13:53:06;0.70;;;0.70;;
7383;SDS011;3733;47.994;8.820;2023-08-06T13:55:32;1.07;;;0.70;;
7383;SDS011;3733;47.994;8.820;2023-08-06T13:57:57;1.07;;;0.60;;
7383;SDS011;3733;47.994;8.820;2023-08-06T14:00:23;2.40;;;0.70;;
7383;SDS011;3733;47.994;8.820;2023-08-06T14:02:48;1.47;;;0.70;;
7383;SDS011;3733;47.994;8.820;2023-08-06T14:05:14;1.17;;;0.70;;
7383;SDS011;3733;47.994;8.820;2023-08-06T14:07:40;3.67;;;1.00;;
7383;SDS011;3733;47.994;8.820;2023-08-06T14:10:05;0.60;;;0.60;;
7383;SDS011;3733;47.994;8.820;2023-08-06T14:12:32;0.70;;;0.70;;
7383;SDS011;3733;47.994;8.820;2023-08-06T14:14:57;1.57;;;0.70;;
7383;SDS011;3733;47.994;8.820;2023-08-06T14:17:24;0.70;;;0.70;;
7383;SDS011;3733;47.994;8.820;2023-08-06T14:19:49;2.67;;;0.70;;
7383;SDS011;3733;47.994;8.820;2023-08-06T14:22:15;0.70;;;0.70;;
7383;SDS011;3733;47.994;8.820;2023-08-06T14:24:40;1.17;;;0.87;;
7383;SDS011;3733;47.994;8.820;2023-08-06T14:27:06;0.80;;;0.80;;
7383;SDS011;3733;47.994;8.820;2023-08-06T14:29:32;1.00;;;0.90;;
7383;SDS011;3733;47.994;8.820;2023-08-06T14:31:58;0.77;;;0.77;;
7383;SDS011;3733;47.994;8.820;2023-08-06T14:34:23;1.10;;;0.90;;
7383;SDS011;3733;47.994;8.820;2023-08-06T14:36:49;1.13;;;0.90;;
7383;SDS011;3733;47.994;8.820;2023-08-06T14:39:15;2.10;;;1.10;;
7383;SDS011;3733;47.994;8.820;2023-08-06T14:41:40;0.97;;;0.93;;
7383;SDS011;3733;47.994;8.820;2023-08-06T14:44:06;0.87;;;0.80;;
7383;SDS011;3733;47.994;8.820;2023-08-06T14:46:32;1.13;;;0.90;;
7383;SDS011;3733;47.994;8.820;2023-08-06T14:48:58;1.20;;;1.07;;
7383;SDS011;3733;47.994;8.820;2023-08-06T14:51:24;1.07;;;0.97;;
7383;SDS011;3733;47.994;8.820;2023-08-06T14:53:49;1.93;;;1.00;;
7383;SDS011;3733;47.994;8.820;2023-08-06T14:56:15;2.07;;;0.90;;
7383;SDS011;3733;47.994;8.820;2023-08-06T14:58:41;2.20;;;0.90;;
7383;SDS011;3733;47.994;8.820;2023-08-06T15:01:07;1.23;;;0.80;;
7383;SDS011;3733;47.994;8.820;2023-08-06T15:03:33;1.00;;;1.00;;
7383;SDS011;3733;47.994;8.820;2023-08-06T15:05:58;0.80;;;0.80;;
7383;SDS011;3733;47.994;8.820;2023-08-06T15:08:24;1.33;;;1.23;;
7383;SDS011;3733;47.994;8.820;2023-08-06T15:10:50;0.87;;;0.80;;
7383;SDS011;3733;47.994;8.820;2023-08-06T15:13:17;2.13;;;1.30;;
7383;SDS011;3733;47.994;8.820;2023-08-06T15:15:43;3.80;;;1.10;;
7383;SDS011;3733;47.994;8.820;2023-08-06T15:18:11;1.00;;;0.97;;
7383;SDS011;3733;47.994;8.820;2023-08-06T15:20:36;1.00;;;1.00;;
7383;SDS011;3733;47.994;8.820;2023-08-06T15:23:02;1.33;;;1.20;;
7383;SDS011;3733;47.994;8.820;2023-08-06T15:25:28;1.00;;;1.00;;
7383;SDS011;3733;47.994;8.820;2023-08-06T15:27:53;1.10;;;0.90;;
7383;SDS011;3733;47.994;8.820;2023-08-06T15:30:19;1.73;;;1.23;;